sensor_id;sensor_type;location;lat;lon;timestamp;P1;durP1;ratioP1;P2;durP2;ratioP2
10872;SDS011;34586;53.616;10.032;2022-07-23T00:00:48;4.37;;;0.80;;
10872;SDS011;34586;53.616;10.032;2022-07-23T00:03:14;2.37;;;0.70;;
10872;SDS011;34586;53.616;10.032;2022-07-23T00:05:40;3.33;;;0.53;;
10872;SDS011;34586;53.616;10.032;2022-07-23T00:08:06;2.83;;;0.90;;
10872;SDS011;34586;53.616;10.032;2022-07-23T00:10:32;1.47;;;0.80;;
10872;SDS011;34586;53.616;10.032;2022-07-23T00:12:58;3.60;;;0.80;;
10872;SDS011;34586;53.616;10.032;2022-07-23T00:15:24;2.07;;;0.63;;
10872;SDS011;34586;53.616;10.032;2022-07-23T00:17:49;3.83;;;0.73;;
10872;SDS011;34586;53.616;10.032;2022-07-23T00:20:15;1.47;;;0.60;;
10872;SDS011;34586;53.616;10.032;2022-07-23T00:25:16;3.07;;;0.90;;
10872;SDS011;34586;53.616;10.032;2022-07-23T00:27:42;1.00;;;0.50;;
10872;SDS011;34586;53.616;10.032;2022-07-23T00:30:08;2.97;;;0.80;;
10872;SDS011;34586;53.616;10.032;2022-07-23T00:32:53;3.33;;;0.90;;
10872;SDS011;34586;53.616;10.032;2022-07-23T00:35:22;3.53;;;1.00;;
10872;SDS011;34586;53.616;10.032;2022-07-23T00:37:49;1.67;;;0.60;;
10872;SDS011;34586;53.616;10.032;2022-07-23T00:40:14;2.23;;;0.77;;
10872;SDS011;34586;53.616;10.032;2022-07-23T00:42:40;1.43;;;0.70;;
10872;SDS011;34586;53.616;10.032;2022-07-23T00:45:06;2.47;;;0.80;;
10872;SDS011;34586;53.616;10.032;2022-07-23T00:47:32;2.30;;;0.77;;
10872;SDS011;34586;53.616;10.032;2022-07-23T00:49:58;1.87;;;0.80;;
10872;SDS011;34586;53.616;10.032;2022-07-23T00:52:25;3.33;;;1.10;;
10872;SDS011;34586;53.616;10.032;2022-07-23T00:54:51;1.43;;;0.60;;
10872;SDS011;34586;53.616;10.032;2022-07-23T00:57:17;1.63;;;0.90;;
10872;SDS011;34586;53.616;10.032;2022-07-23T00:59:43;2.03;;;0.60;;
10872;SDS011;34586;53.616;10.032;2022-07-23T01:02:09;3.70;;;1.00;;
10872;SDS011;34586;53.616;10.032;2022-07-23T01:04:34;2.50;;;0.60;;
10872;SDS011;34586;53.616;10.032;2022-07-23T01:07:00;2.00;;;0.60;;
10872;SDS011;34586;53.616;10.032;2022-07-23T01:09:26;2.77;;;0.60;;
10872;SDS011;34586;53.616;10.032;2022-07-23T01:11:53;2.70;;;0.57;;
10872;SDS011;34586;53.616;10.032;2022-07-23T01:14:19;2.33;;;0.60;;
10872;SDS011;34586;53.616;10.032;2022-07-23T01:16:46;3.50;;;0.70;;
10872;SDS011;34586;53.616;10.032;2022-07-23T01:19:13;0.87;;;0.50;;
10872;SDS011;34586;53.616;10.032;2022-07-23T01:21:40;1.17;;;0.60;;
10872;SDS011;34586;53.616;10.032;2022-07-23T01:24:10;2.97;;;0.77;;
10872;SDS011;34586;53.616;10.032;2022-07-23T01:26:36;4.03;;;0.60;;
10872;SDS011;34586;53.616;10.032;2022-07-23T01:29:03;4.27;;;0.77;;
10872;SDS011;34586;53.616;10.032;2022-07-23T01:31:29;1.97;;;0.53;;
10872;SDS011;34586;53.616;10.032;2022-07-23T01:33:55;2.27;;;0.60;;
10872;SDS011;34586;53.616;10.032;2022-07-23T01:36:21;2.30;;;0.70;;
10872;SDS011;34586;53.616;10.032;2022-07-23T01:38:47;3.40;;;0.70;;
10872;SDS011;34586;53.616;10.032;2022-07-23T01:41:13;2.40;;;0.73;;
10872;SDS011;34586;53.616;10.032;2022-07-23T01:43:38;2.80;;;0.67;;
10872;SDS011;34586;53.616;10.032;2022-07-23T01:46:04;4.70;;;0.53;;
10872;SDS011;34586;53.616;10.032;2022-07-23T01:48:30;1.73;;;0.80;;
10872;SDS011;34586;53.616;10.032;2022-07-23T01:50:55;2.77;;;0.67;;
10872;SDS011;34586;53.616;10.032;2022-07-23T01:53:21;1.13;;;0.70;;
10872;SDS011;34586;53.616;10.032;2022-07-23T01:55:46;0.77;;;0.53;;
10872;SDS011;34586;53.616;10.032;2022-07-23T01:58:12;3.60;;;0.57;;
10872;SDS011;34586;53.616;10.032;2022-07-23T02:00:38;0.97;;;0.57;;
10872;SDS011;34586;53.616;10.032;2022-07-23T02:03:03;2.53;;;0.60;;
10872;SDS011;34586;53.616;10.032;2022-07-23T02:05:29;2.27;;;0.60;;
10872;SDS011;34586;53.616;10.032;2022-07-23T02:07:56;2.47;;;0.80;;
10872;SDS011;34586;53.616;10.032;2022-07-23T02:10:22;3.63;;;0.90;;
10872;SDS011;34586;53.616;10.032;2022-07-23T02:12:48;3.80;;;0.60;;
10872;SDS011;34586;53.616;10.032;2022-07-23T02:15:13;2.23;;;0.60;;
10872;SDS011;34586;53.616;10.032;2022-07-23T02:17:39;3.93;;;0.83;;
10872;SDS011;34586;53.616;10.032;2022-07-23T02:20:06;1.37;;;0.60;;
10872;SDS011;34586;53.616;10.032;2022-07-23T02:22:32;1.43;;;0.60;;
10872;SDS011;34586;53.616;10.032;2022-07-23T02:24:58;4.40;;;0.80;;
10872;SDS011;34586;53.616;10.032;2022-07-23T02:27:24;1.20;;;0.67;;
10872;SDS011;34586;53.616;10.032;2022-07-23T02:29:49;1.60;;;0.67;;
10872;SDS011;34586;53.616;10.032;2022-07-23T02:32:15;2.90;;;0.70;;
10872;SDS011;34586;53.616;10.032;2022-07-23T02:34:41;5.97;;;0.97;;
10872;SDS011;34586;53.616;10.032;2022-07-23T02:37:08;2.37;;;0.70;;
10872;SDS011;34586;53.616;10.032;2022-07-23T02:39:34;2.00;;;0.80;;
10872;SDS011;34586;53.616;10.032;2022-07-23T02:42:01;2.53;;;0.57;;
10872;SDS011;34586;53.616;10.032;2022-07-23T02:44:27;4.00;;;0.83;;
10872;SDS011;34586;53.616;10.032;2022-07-23T02:46:52;3.20;;;0.87;;
10872;SDS011;34586;53.616;10.032;2022-07-23T02:49:19;2.67;;;0.70;;
10872;SDS011;34586;53.616;10.032;2022-07-23T02:51:44;2.20;;;0.60;;
10872;SDS011;34586;53.616;10.032;2022-07-23T02:54:10;2.50;;;0.80;;
10872;SDS011;34586;53.616;10.032;2022-07-23T02:56:35;1.90;;;0.73;;
10872;SDS011;34586;53.616;10.032;2022-07-23T02:59:01;1.67;;;0.50;;
10872;SDS011;34586;53.616;10.032;2022-07-23T03:01:26;1.70;;;0.60;;
10872;SDS011;34586;53.616;10.032;2022-07-23T03:03:52;3.37;;;0.70;;
10872;SDS011;34586;53.616;10.032;2022-07-23T03:06:18;4.17;;;0.73;;
10872;SDS011;34586;53.616;10.032;2022-07-23T03:08:43;2.00;;;1.03;;
10872;SDS011;34586;53.616;10.032;2022-07-23T03:11:09;1.80;;;1.00;;
10872;SDS011;34586;53.616;10.032;2022-07-23T03:13:39;2.77;;;0.80;;
10872;SDS011;34586;53.616;10.032;2022-07-23T03:16:06;3.00;;;0.77;;
10872;SDS011;34586;53.616;10.032;2022-07-23T03:18:32;2.00;;;0.93;;
10872;SDS011;34586;53.616;10.032;2022-07-23T03:20:58;1.63;;;0.70;;
10872;SDS011;34586;53.616;10.032;2022-07-23T03:23:24;1.77;;;0.80;;
10872;SDS011;34586;53.616;10.032;2022-07-23T03:25:49;3.80;;;0.80;;
10872;SDS011;34586;53.616;10.032;2022-07-23T03:28:15;2.97;;;0.70;;
10872;SDS011;34586;53.616;10.032;2022-07-23T03:30:42;2.17;;;0.70;;
10872;SDS011;34586;53.616;10.032;2022-07-23T03:33:10;2.53;;;0.70;;
10872;SDS011;34586;53.616;10.032;2022-07-23T03:35:35;4.40;;;1.00;;
10872;SDS011;34586;53.616;10.032;2022-07-23T03:38:01;2.87;;;0.70;;
10872;SDS011;34586;53.616;10.032;2022-07-23T03:40:27;1.73;;;0.70;;
10872;SDS011;34586;53.616;10.032;2022-07-23T03:42:52;3.00;;;0.70;;
10872;SDS011;34586;53.616;10.032;2022-07-23T03:45:18;2.80;;;0.80;;
10872;SDS011;34586;53.616;10.032;2022-07-23T03:47:43;3.07;;;0.80;;
10872;SDS011;34586;53.616;10.032;2022-07-23T03:50:09;4.77;;;1.10;;
10872;SDS011;34586;53.616;10.032;2022-07-23T03:52:35;2.00;;;0.80;;
10872;SDS011;34586;53.616;10.032;2022-07-23T03:55:01;1.47;;;0.60;;
10872;SDS011;34586;53.616;10.032;2022-07-23T03:57:28;3.97;;;0.80;;
10872;SDS011;34586;53.616;10.032;2022-07-23T03:59:53;3.40;;;0.93;;
10872;SDS011;34586;53.616;10.032;2022-07-23T04:02:19;3.13;;;1.03;;
10872;SDS011;34586;53.616;10.032;2022-07-23T04:04:45;3.13;;;1.10;;
10872;SDS011;34586;53.616;10.032;2022-07-23T04:07:11;2.97;;;0.70;;
10872;SDS011;34586;53.616;10.032;2022-07-23T04:09:37;1.23;;;0.70;;
10872;SDS011;34586;53.616;10.032;2022-07-23T04:12:05;2.93;;;0.73;;
10872;SDS011;34586;53.616;10.032;2022-07-23T04:14:31;1.87;;;0.70;;
10872;SDS011;34586;53.616;10.032;2022-07-23T04:16:57;3.03;;;0.80;;
10872;SDS011;34586;53.616;10.032;2022-07-23T04:19:22;0.83;;;0.60;;
10872;SDS011;34586;53.616;10.032;2022-07-23T04:21:48;3.07;;;0.90;;
10872;SDS011;34586;53.616;10.032;2022-07-23T04:24:14;4.67;;;1.17;;
10872;SDS011;34586;53.616;10.032;2022-07-23T04:26:39;3.70;;;1.00;;
10872;SDS011;34586;53.616;10.032;2022-07-23T04:29:05;1.43;;;0.80;;
10872;SDS011;34586;53.616;10.032;2022-07-23T04:31:30;2.50;;;1.00;;
10872;SDS011;34586;53.616;10.032;2022-07-23T04:33:56;1.90;;;0.80;;
10872;SDS011;34586;53.616;10.032;2022-07-23T04:36:21;1.50;;;0.90;;
10872;SDS011;34586;53.616;10.032;2022-07-23T04:38:47;4.70;;;1.00;;
10872;SDS011;34586;53.616;10.032;2022-07-23T04:41:12;4.10;;;0.80;;
10872;SDS011;34586;53.616;10.032;2022-07-23T04:43:38;2.90;;;1.10;;
10872;SDS011;34586;53.616;10.032;2022-07-23T04:46:04;4.33;;;0.77;;
10872;SDS011;34586;53.616;10.032;2022-07-23T04:48:29;2.47;;;0.80;;
10872;SDS011;34586;53.616;10.032;2022-07-23T04:50:55;3.20;;;1.00;;
10872;SDS011;34586;53.616;10.032;2022-07-23T04:53:20;5.07;;;1.30;;
10872;SDS011;34586;53.616;10.032;2022-07-23T04:55:46;6.07;;;1.37;;
10872;SDS011;34586;53.616;10.032;2022-07-23T04:58:12;4.43;;;1.13;;
10872;SDS011;34586;53.616;10.032;2022-07-23T05:00:38;3.63;;;1.10;;
10872;SDS011;34586;53.616;10.032;2022-07-23T05:03:03;2.53;;;1.00;;
10872;SDS011;34586;53.616;10.032;2022-07-23T05:05:29;1.03;;;0.90;;
10872;SDS011;34586;53.616;10.032;2022-07-23T05:07:55;1.13;;;0.77;;
10872;SDS011;34586;53.616;10.032;2022-07-23T05:10:20;2.93;;;1.10;;
10872;SDS011;34586;53.616;10.032;2022-07-23T05:12:46;1.07;;;0.70;;
10872;SDS011;34586;53.616;10.032;2022-07-23T05:15:12;3.87;;;1.10;;
10872;SDS011;34586;53.616;10.032;2022-07-23T05:17:37;2.93;;;0.87;;
10872;SDS011;34586;53.616;10.032;2022-07-23T05:20:03;2.57;;;0.87;;
10872;SDS011;34586;53.616;10.032;2022-07-23T05:22:29;2.30;;;0.50;;
10872;SDS011;34586;53.616;10.032;2022-07-23T05:24:55;1.17;;;0.60;;
10872;SDS011;34586;53.616;10.032;2022-07-23T05:27:20;0.80;;;0.60;;
10872;SDS011;34586;53.616;10.032;2022-07-23T05:29:46;7.13;;;0.63;;
10872;SDS011;34586;53.616;10.032;2022-07-23T05:32:11;1.80;;;0.57;;
10872;SDS011;34586;53.616;10.032;2022-07-23T05:34:37;1.30;;;0.50;;
10872;SDS011;34586;53.616;10.032;2022-07-23T05:37:02;1.13;;;0.50;;
10872;SDS011;34586;53.616;10.032;2022-07-23T05:39:28;0.80;;;0.60;;
10872;SDS011;34586;53.616;10.032;2022-07-23T05:41:54;1.43;;;0.70;;
10872;SDS011;34586;53.616;10.032;2022-07-23T05:44:19;1.63;;;0.70;;
10872;SDS011;34586;53.616;10.032;2022-07-23T05:46:45;1.53;;;0.60;;
10872;SDS011;34586;53.616;10.032;2022-07-23T05:49:11;3.70;;;0.50;;
10872;SDS011;34586;53.616;10.032;2022-07-23T05:51:37;1.37;;;0.50;;
10872;SDS011;34586;53.616;10.032;2022-07-23T05:54:02;2.60;;;0.43;;
10872;SDS011;34586;53.616;10.032;2022-07-23T05:56:28;1.60;;;0.50;;
10872;SDS011;34586;53.616;10.032;2022-07-23T05:58:54;2.27;;;0.30;;
10872;SDS011;34586;53.616;10.032;2022-07-23T06:01:19;1.10;;;0.40;;
10872;SDS011;34586;53.616;10.032;2022-07-23T06:03:45;1.63;;;0.60;;
10872;SDS011;34586;53.616;10.032;2022-07-23T06:06:10;2.00;;;0.60;;
10872;SDS011;34586;53.616;10.032;2022-07-23T06:08:36;1.90;;;0.50;;
10872;SDS011;34586;53.616;10.032;2022-07-23T06:11:02;3.33;;;0.60;;
10872;SDS011;34586;53.616;10.032;2022-07-23T06:13:27;0.40;;;0.40;;
10872;SDS011;34586;53.616;10.032;2022-07-23T06:15:53;1.13;;;0.57;;
10872;SDS011;34586;53.616;10.032;2022-07-23T06:18:18;1.33;;;0.50;;
10872;SDS011;34586;53.616;10.032;2022-07-23T06:20:44;2.77;;;0.60;;
10872;SDS011;34586;53.616;10.032;2022-07-23T06:23:10;1.60;;;0.70;;
10872;SDS011;34586;53.616;10.032;2022-07-23T06:25:37;1.77;;;0.50;;
10872;SDS011;34586;53.616;10.032;2022-07-23T06:28:03;2.37;;;0.70;;
10872;SDS011;34586;53.616;10.032;2022-07-23T06:30:28;1.73;;;0.60;;
10872;SDS011;34586;53.616;10.032;2022-07-23T06:32:54;1.13;;;0.60;;
10872;SDS011;34586;53.616;10.032;2022-07-23T06:35:19;3.07;;;0.57;;
10872;SDS011;34586;53.616;10.032;2022-07-23T06:37:45;1.80;;;0.50;;
10872;SDS011;34586;53.616;10.032;2022-07-23T06:40:11;0.73;;;0.40;;
10872;SDS011;34586;53.616;10.032;2022-07-23T06:42:37;1.90;;;0.40;;
10872;SDS011;34586;53.616;10.032;2022-07-23T06:45:04;0.70;;;0.37;;
10872;SDS011;34586;53.616;10.032;2022-07-23T06:47:31;1.63;;;0.40;;
10872;SDS011;34586;53.616;10.032;2022-07-23T06:49:57;1.80;;;0.50;;
10872;SDS011;34586;53.616;10.032;2022-07-23T06:52:23;2.17;;;0.40;;
10872;SDS011;34586;53.616;10.032;2022-07-23T06:54:49;1.43;;;0.37;;
10872;SDS011;34586;53.616;10.032;2022-07-23T06:57:14;0.53;;;0.30;;
10872;SDS011;34586;53.616;10.032;2022-07-23T06:59:40;2.97;;;0.40;;
10872;SDS011;34586;53.616;10.032;2022-07-23T07:02:06;6.93;;;0.47;;
10872;SDS011;34586;53.616;10.032;2022-07-23T07:04:32;1.93;;;0.50;;
10872;SDS011;34586;53.616;10.032;2022-07-23T07:06:58;2.07;;;0.40;;
10872;SDS011;34586;53.616;10.032;2022-07-23T07:09:23;0.63;;;0.50;;
10872;SDS011;34586;53.616;10.032;2022-07-23T07:11:49;1.27;;;0.40;;
10872;SDS011;34586;53.616;10.032;2022-07-23T07:14:15;0.83;;;0.50;;
10872;SDS011;34586;53.616;10.032;2022-07-23T07:16:41;1.53;;;0.30;;
10872;SDS011;34586;53.616;10.032;2022-07-23T07:19:07;0.73;;;0.30;;
10872;SDS011;34586;53.616;10.032;2022-07-23T07:21:32;1.17;;;0.50;;
10872;SDS011;34586;53.616;10.032;2022-07-23T07:23:58;0.60;;;0.60;;
10872;SDS011;34586;53.616;10.032;2022-07-23T07:26:24;1.20;;;0.23;;
10872;SDS011;34586;53.616;10.032;2022-07-23T07:28:50;0.57;;;0.33;;
10872;SDS011;34586;53.616;10.032;2022-07-23T07:31:16;4.13;;;0.47;;
10872;SDS011;34586;53.616;10.032;2022-07-23T07:33:42;3.33;;;0.73;;
10872;SDS011;34586;53.616;10.032;2022-07-23T07:36:07;1.70;;;0.30;;
10872;SDS011;34586;53.616;10.032;2022-07-23T07:38:33;1.37;;;0.30;;
10872;SDS011;34586;53.616;10.032;2022-07-23T07:40:59;1.10;;;0.40;;
10872;SDS011;34586;53.616;10.032;2022-07-23T07:43:24;0.70;;;0.30;;
10872;SDS011;34586;53.616;10.032;2022-07-23T07:45:50;1.33;;;0.27;;
10872;SDS011;34586;53.616;10.032;2022-07-23T07:48:16;1.83;;;0.30;;
10872;SDS011;34586;53.616;10.032;2022-07-23T07:50:41;1.17;;;0.27;;
10872;SDS011;34586;53.616;10.032;2022-07-23T07:53:07;1.37;;;0.40;;
10872;SDS011;34586;53.616;10.032;2022-07-23T07:55:33;1.17;;;0.20;;
10872;SDS011;34586;53.616;10.032;2022-07-23T07:57:59;1.63;;;0.30;;
10872;SDS011;34586;53.616;10.032;2022-07-23T08:00:25;1.33;;;0.40;;
10872;SDS011;34586;53.616;10.032;2022-07-23T08:02:51;1.13;;;0.30;;
10872;SDS011;34586;53.616;10.032;2022-07-23T08:05:21;0.80;;;0.30;;
10872;SDS011;34586;53.616;10.032;2022-07-23T08:07:48;1.30;;;0.33;;
10872;SDS011;34586;53.616;10.032;2022-07-23T08:10:14;1.33;;;0.30;;
10872;SDS011;34586;53.616;10.032;2022-07-23T08:12:47;2.03;;;0.57;;
10872;SDS011;34586;53.616;10.032;2022-07-23T08:15:17;1.30;;;0.40;;
10872;SDS011;34586;53.616;10.032;2022-07-23T08:17:44;1.13;;;0.30;;
10872;SDS011;34586;53.616;10.032;2022-07-23T08:20:11;1.43;;;0.50;;
10872;SDS011;34586;53.616;10.032;2022-07-23T08:22:56;0.80;;;0.40;;
10872;SDS011;34586;53.616;10.032;2022-07-23T08:25:29;0.40;;;0.40;;
10872;SDS011;34586;53.616;10.032;2022-07-23T08:27:57;1.67;;;0.40;;
10872;SDS011;34586;53.616;10.032;2022-07-23T08:30:24;2.13;;;0.40;;
10872;SDS011;34586;53.616;10.032;2022-07-23T08:33:00;2.03;;;0.40;;
10872;SDS011;34586;53.616;10.032;2022-07-23T08:35:40;2.47;;;0.40;;
10872;SDS011;34586;53.616;10.032;2022-07-23T08:38:10;0.70;;;0.30;;
10872;SDS011;34586;53.616;10.032;2022-07-23T08:40:37;0.97;;;0.30;;
10872;SDS011;34586;53.616;10.032;2022-07-23T08:43:07;0.97;;;0.37;;
10872;SDS011;34586;53.616;10.032;2022-07-23T08:45:36;1.33;;;0.40;;
10872;SDS011;34586;53.616;10.032;2022-07-23T08:48:04;1.07;;;0.30;;
10872;SDS011;34586;53.616;10.032;2022-07-23T08:50:32;0.87;;;0.30;;
10872;SDS011;34586;53.616;10.032;2022-07-23T08:52:59;1.10;;;0.40;;
10872;SDS011;34586;53.616;10.032;2022-07-23T08:55:26;1.00;;;0.30;;
10872;SDS011;34586;53.616;10.032;2022-07-23T08:57:52;1.03;;;0.30;;
10872;SDS011;34586;53.616;10.032;2022-07-23T09:00:19;0.90;;;0.20;;
10872;SDS011;34586;53.616;10.032;2022-07-23T09:02:46;1.40;;;0.20;;
10872;SDS011;34586;53.616;10.032;2022-07-23T09:05:12;0.93;;;0.20;;
10872;SDS011;34586;53.616;10.032;2022-07-23T09:13:24;1.33;;;0.20;;
10872;SDS011;34586;53.616;10.032;2022-07-23T09:15:50;0.33;;;0.20;;
10872;SDS011;34586;53.616;10.032;2022-07-23T09:18:17;1.30;;;0.20;;
10872;SDS011;34586;53.616;10.032;2022-07-23T09:20:43;0.20;;;0.10;;
10872;SDS011;34586;53.616;10.032;2022-07-23T09:23:09;0.33;;;0.10;;
10872;SDS011;34586;53.616;10.032;2022-07-23T09:25:35;0.87;;;0.20;;
10872;SDS011;34586;53.616;10.032;2022-07-23T09:28:00;0.70;;;0.27;;
10872;SDS011;34586;53.616;10.032;2022-07-23T09:30:32;0.90;;;0.40;;
10872;SDS011;34586;53.616;10.032;2022-07-23T09:35:50;3.70;;;0.30;;
10872;SDS011;34586;53.616;10.032;2022-07-23T09:38:24;1.23;;;0.37;;
10872;SDS011;34586;53.616;10.032;2022-07-23T09:41:09;0.47;;;0.30;;
10872;SDS011;34586;53.616;10.032;2022-07-23T09:43:35;1.27;;;0.30;;
10872;SDS011;34586;53.616;10.032;2022-07-23T09:46:20;0.20;;;0.20;;
10872;SDS011;34586;53.616;10.032;2022-07-23T09:48:46;2.37;;;0.50;;
10872;SDS011;34586;53.616;10.032;2022-07-23T09:51:12;0.50;;;0.30;;
10872;SDS011;34586;53.616;10.032;2022-07-23T09:53:56;0.40;;;0.30;;
10872;SDS011;34586;53.616;10.032;2022-07-23T09:56:22;0.80;;;0.40;;
10872;SDS011;34586;53.616;10.032;2022-07-23T09:58:50;0.57;;;0.30;;
10872;SDS011;34586;53.616;10.032;2022-07-23T10:01:17;0.97;;;0.20;;
10872;SDS011;34586;53.616;10.032;2022-07-23T10:03:44;0.30;;;0.20;;
10872;SDS011;34586;53.616;10.032;2022-07-23T10:06:12;0.57;;;0.20;;
10872;SDS011;34586;53.616;10.032;2022-07-23T10:08:41;1.17;;;0.30;;
10872;SDS011;34586;53.616;10.032;2022-07-23T10:11:11;1.57;;;0.30;;
10872;SDS011;34586;53.616;10.032;2022-07-23T10:13:39;0.90;;;0.40;;
10872;SDS011;34586;53.616;10.032;2022-07-23T10:16:25;2.17;;;0.50;;
10872;SDS011;34586;53.616;10.032;2022-07-23T10:18:51;1.07;;;0.30;;
10872;SDS011;34586;53.616;10.032;2022-07-23T10:21:25;0.53;;;0.30;;
10872;SDS011;34586;53.616;10.032;2022-07-23T10:24:20;0.77;;;0.30;;
10872;SDS011;34586;53.616;10.032;2022-07-23T10:30:00;1.03;;;0.27;;
10872;SDS011;34586;53.616;10.032;2022-07-23T10:37:53;0.70;;;0.20;;
10872;SDS011;34586;53.616;10.032;2022-07-23T10:40:26;0.90;;;0.20;;
10872;SDS011;34586;53.616;10.032;2022-07-23T10:42:53;0.40;;;0.30;;
10872;SDS011;34586;53.616;10.032;2022-07-23T10:50:44;1.67;;;0.13;;
10872;SDS011;34586;53.616;10.032;2022-07-23T10:53:47;1.17;;;0.27;;
10872;SDS011;34586;53.616;10.032;2022-07-23T10:59:15;0.57;;;0.20;;
10872;SDS011;34586;53.616;10.032;2022-07-23T11:01:40;0.37;;;0.20;;
10872;SDS011;34586;53.616;10.032;2022-07-23T11:04:06;0.63;;;0.30;;
10872;SDS011;34586;53.616;10.032;2022-07-23T11:09:30;0.87;;;0.40;;
10872;SDS011;34586;53.616;10.032;2022-07-23T11:17:25;0.27;;;0.17;;
10872;SDS011;34586;53.616;10.032;2022-07-23T11:25:02;0.93;;;0.20;;
10872;SDS011;34586;53.616;10.032;2022-07-23T11:27:46;0.40;;;0.23;;
10872;SDS011;34586;53.616;10.032;2022-07-23T11:32:54;1.10;;;0.33;;
10872;SDS011;34586;53.616;10.032;2022-07-23T11:35:39;0.83;;;0.30;;
10872;SDS011;34586;53.616;10.032;2022-07-23T11:40:47;0.83;;;0.40;;
10872;SDS011;34586;53.616;10.032;2022-07-23T11:43:17;1.57;;;0.23;;
10872;SDS011;34586;53.616;10.032;2022-07-23T11:45:44;0.40;;;0.20;;
10872;SDS011;34586;53.616;10.032;2022-07-23T11:50:51;0.30;;;0.30;;
10872;SDS011;34586;53.616;10.032;2022-07-23T11:53:36;0.77;;;0.30;;
10872;SDS011;34586;53.616;10.032;2022-07-23T11:56:05;1.10;;;0.30;;
10872;SDS011;34586;53.616;10.032;2022-07-23T11:58:32;2.07;;;0.50;;
10872;SDS011;34586;53.616;10.032;2022-07-23T12:00:58;0.83;;;0.30;;
10872;SDS011;34586;53.616;10.032;2022-07-23T12:03:23;1.20;;;0.40;;
10872;SDS011;34586;53.616;10.032;2022-07-23T12:05:49;2.37;;;0.40;;
10872;SDS011;34586;53.616;10.032;2022-07-23T12:08:21;0.30;;;0.30;;
10872;SDS011;34586;53.616;10.032;2022-07-23T12:10:47;0.20;;;0.20;;
10872;SDS011;34586;53.616;10.032;2022-07-23T12:13:13;2.07;;;0.73;;
10872;SDS011;34586;53.616;10.032;2022-07-23T12:15:42;1.83;;;0.43;;
10872;SDS011;34586;53.616;10.032;2022-07-23T12:18:10;2.40;;;0.30;;
10872;SDS011;34586;53.616;10.032;2022-07-23T12:20:38;1.03;;;0.30;;
10872;SDS011;34586;53.616;10.032;2022-07-23T12:23:09;0.97;;;0.40;;
10872;SDS011;34586;53.616;10.032;2022-07-23T12:25:38;1.73;;;0.40;;
10872;SDS011;34586;53.616;10.032;2022-07-23T12:30:37;1.10;;;0.40;;
10872;SDS011;34586;53.616;10.032;2022-07-23T12:33:04;1.23;;;0.23;;
10872;SDS011;34586;53.616;10.032;2022-07-23T12:35:32;1.03;;;0.20;;
10872;SDS011;34586;53.616;10.032;2022-07-23T12:38:01;1.20;;;0.37;;
10872;SDS011;34586;53.616;10.032;2022-07-23T12:40:29;1.80;;;0.30;;
10872;SDS011;34586;53.616;10.032;2022-07-23T12:43:05;0.67;;;0.20;;
10872;SDS011;34586;53.616;10.032;2022-07-23T12:45:46;0.90;;;0.30;;
10872;SDS011;34586;53.616;10.032;2022-07-23T12:48:26;0.80;;;0.20;;
10872;SDS011;34586;53.616;10.032;2022-07-23T12:50:57;0.30;;;0.30;;
10872;SDS011;34586;53.616;10.032;2022-07-23T12:53:25;0.40;;;0.30;;
10872;SDS011;34586;53.616;10.032;2022-07-23T12:56:13;1.30;;;0.40;;
10872;SDS011;34586;53.616;10.032;2022-07-23T13:01:56;1.00;;;0.30;;
10872;SDS011;34586;53.616;10.032;2022-07-23T13:04:07;1.87;;;0.30;;
10872;SDS011;34586;53.616;10.032;2022-07-23T13:06:55;1.37;;;0.20;;
10872;SDS011;34586;53.616;10.032;2022-07-23T13:09:29;0.40;;;0.20;;
10872;SDS011;34586;53.616;10.032;2022-07-23T13:11:56;0.83;;;0.30;;
10872;SDS011;34586;53.616;10.032;2022-07-23T13:14:23;1.23;;;0.40;;
10872;SDS011;34586;53.616;10.032;2022-07-23T13:16:50;1.53;;;0.23;;
10872;SDS011;34586;53.616;10.032;2022-07-23T13:19:17;2.13;;;0.30;;
10872;SDS011;34586;53.616;10.032;2022-07-23T13:21:43;0.70;;;0.30;;
10872;SDS011;34586;53.616;10.032;2022-07-23T13:24:09;1.00;;;0.40;;
10872;SDS011;34586;53.616;10.032;2022-07-23T13:26:36;1.83;;;0.30;;
10872;SDS011;34586;53.616;10.032;2022-07-23T13:29:02;0.67;;;0.40;;
10872;SDS011;34586;53.616;10.032;2022-07-23T13:31:28;2.60;;;0.40;;
10872;SDS011;34586;53.616;10.032;2022-07-23T13:33:54;0.63;;;0.20;;
10872;SDS011;34586;53.616;10.032;2022-07-23T13:36:19;1.03;;;0.40;;
10872;SDS011;34586;53.616;10.032;2022-07-23T13:38:45;0.70;;;0.20;;
10872;SDS011;34586;53.616;10.032;2022-07-23T13:41:11;1.03;;;0.40;;
10872;SDS011;34586;53.616;10.032;2022-07-23T13:43:36;0.57;;;0.30;;
10872;SDS011;34586;53.616;10.032;2022-07-23T13:46:02;0.70;;;0.20;;
10872;SDS011;34586;53.616;10.032;2022-07-23T13:48:28;0.63;;;0.30;;
10872;SDS011;34586;53.616;10.032;2022-07-23T13:50:54;0.53;;;0.20;;
10872;SDS011;34586;53.616;10.032;2022-07-23T13:53:21;1.20;;;0.40;;
10872;SDS011;34586;53.616;10.032;2022-07-23T13:55:48;1.00;;;0.40;;
10872;SDS011;34586;53.616;10.032;2022-07-23T13:58:16;0.37;;;0.20;;
10872;SDS011;34586;53.616;10.032;2022-07-23T14:00:43;0.97;;;0.30;;
10872;SDS011;34586;53.616;10.032;2022-07-23T14:03:11;1.40;;;0.47;;
10872;SDS011;34586;53.616;10.032;2022-07-23T14:05:37;0.47;;;0.40;;
10872;SDS011;34586;53.616;10.032;2022-07-23T14:08:03;1.10;;;0.33;;
10872;SDS011;34586;53.616;10.032;2022-07-23T14:10:29;1.03;;;0.37;;
10872;SDS011;34586;53.616;10.032;2022-07-23T14:12:54;1.00;;;0.40;;
10872;SDS011;34586;53.616;10.032;2022-07-23T14:15:22;1.70;;;0.30;;
10872;SDS011;34586;53.616;10.032;2022-07-23T14:17:49;1.60;;;0.30;;
10872;SDS011;34586;53.616;10.032;2022-07-23T14:20:15;1.93;;;0.20;;
10872;SDS011;34586;53.616;10.032;2022-07-23T14:22:41;0.47;;;0.23;;
10872;SDS011;34586;53.616;10.032;2022-07-23T14:25:07;0.93;;;0.30;;
10872;SDS011;34586;53.616;10.032;2022-07-23T14:27:34;0.60;;;0.30;;
10872;SDS011;34586;53.616;10.032;2022-07-23T14:30:00;0.93;;;0.47;;
10872;SDS011;34586;53.616;10.032;2022-07-23T14:32:26;1.43;;;0.40;;
10872;SDS011;34586;53.616;10.032;2022-07-23T14:34:52;0.60;;;0.27;;
10872;SDS011;34586;53.616;10.032;2022-07-23T14:37:18;0.87;;;0.40;;
10872;SDS011;34586;53.616;10.032;2022-07-23T14:39:44;2.37;;;0.20;;
10872;SDS011;34586;53.616;10.032;2022-07-23T14:42:10;0.97;;;0.30;;
10872;SDS011;34586;53.616;10.032;2022-07-23T14:44:37;0.83;;;0.20;;
10872;SDS011;34586;53.616;10.032;2022-07-23T14:47:04;2.20;;;0.20;;
10872;SDS011;34586;53.616;10.032;2022-07-23T14:49:30;0.50;;;0.20;;
10872;SDS011;34586;53.616;10.032;2022-07-23T14:51:56;0.63;;;0.30;;
10872;SDS011;34586;53.616;10.032;2022-07-23T14:54:22;0.60;;;0.20;;
10872;SDS011;34586;53.616;10.032;2022-07-23T14:56:50;0.67;;;0.20;;
10872;SDS011;34586;53.616;10.032;2022-07-23T14:59:16;1.10;;;0.23;;
10872;SDS011;34586;53.616;10.032;2022-07-23T15:01:42;0.20;;;0.20;;
10872;SDS011;34586;53.616;10.032;2022-07-23T15:04:07;1.47;;;0.30;;
10872;SDS011;34586;53.616;10.032;2022-07-23T15:06:33;0.50;;;0.30;;
10872;SDS011;34586;53.616;10.032;2022-07-23T15:08:59;2.10;;;0.30;;
10872;SDS011;34586;53.616;10.032;2022-07-23T15:11:25;0.73;;;0.30;;
10872;SDS011;34586;53.616;10.032;2022-07-23T15:13:52;2.20;;;0.50;;
10872;SDS011;34586;53.616;10.032;2022-07-23T15:16:17;0.77;;;0.30;;
10872;SDS011;34586;53.616;10.032;2022-07-23T15:18:43;1.40;;;0.30;;
10872;SDS011;34586;53.616;10.032;2022-07-23T15:21:09;0.60;;;0.20;;
10872;SDS011;34586;53.616;10.032;2022-07-23T15:23:34;0.70;;;0.40;;
10872;SDS011;34586;53.616;10.032;2022-07-23T15:26:01;1.07;;;0.40;;
10872;SDS011;34586;53.616;10.032;2022-07-23T15:28:27;1.83;;;0.40;;